Hlavní strana
METAR-TAF:

METAR-TAF

Letiště :

Halmstad, Švédsko

zeměpisná šířka: 56-41N, zeměpisná délka: 012-50E, výška: 30 m

Aktuální stav počasí

Zpráva byla vytvořena před 37 minutami, v 05:50 UTC
Východoseverovýchodní vítr 11 kt, proměnlivý mezi severovýchodním a východojihovýchodním
Teplota 3°C
Vlhkost vzduchu 75%
Tlak 1028 hPa
Viditelnost 10 km a více
Skoro jasno ve výšce 1800 ft

METAR: ESMT 210550Z 07011KT 050V110 9999 FEW018 03/M01 Q1028

Čas: 07:27 (06:27 UTC)

Předpověď počasí

Zpráva byla vytvořena před 1 hodinou a 12 minutami, v 05:15 UTC
Předpověď platná od 21 v 06 UTC do 21 v 15 UTC
Východní vítr 10 kt
Viditelnost 10 km a více
Polojasno ve výšce 2000 ft

TAF: ESMT 210515Z 2106/2115 08010KT 9999 SCT020

Stav a předpovědi počasí z více než 4 000 letišť (zprávy METAR a TAF).

Červené a žluté tečky na mapě představují dostupné meteorologické stanice.

Když kurzor umístíte na tečku, zobrazí se název stanice.

Pak kliknutím zobrazíte stav a předpověď počasí.

Chcete-li změnit mapu, kliknutím na zelené tlačítko se znaménkem +mapu přiblížíte, kliknutím na zelené tlačítko se znaménkem – mapu oddálíte a kliknutím na zelené šipky přejdete na sousední mapy.


METAR-TAF: